RKPK/PUS METAR and TAF weather

Enter ICAO airport designator
Station Type Date Time Source
RKPK METAR 2019/10/22 16:00 UTC NOAA

RKPK 221600Z 01008KT 9999 FEW040 SCT200 17/12 Q1017


Station Type Date Time Source
RKPK Decoded METAR 2019/10/22 16:00 UTC NOAA

Pusan / Kimhae International Airport, Korea, South (RKPK) 35-11N 128-56E 6M
Oct 22, 2019 - 12:00 PM EDT / 2019.10.22 1600 UTC
Wind: from the N (010 degrees) at 9 MPH (8 KT):0
Visibility: greater than 7 mile(s):0
Sky conditions: partly cloudy
Temperature: 62 F (17 C)
Dew Point: 53 F (12 C)
Relative Humidity: 72%
Pressure (altimeter): 30.03 in. Hg (1017 hPa)
ob: RKPK 221600Z 01008KT 9999 FEW040 SCT200 17/12 Q1017
cycle: 16

Station Type Date Time Source
RKPK TAF 2019/10/22 12:16 UTC NOAA

TAF RKPK 221100Z 2212/2318 03006KT 9999 BKN040 BKN200 TN13/2220Z TX21/2306Z

Example: see airport list